Time;durP1;ratioP1;P1;durP2;ratioP2;P2;SDS_P1;SDS_P2;PMS_P1;PMS_P2;Temp;Humidity;BMP_temperature;BMP_pressure;BME280_temperature;BME280_humidity;BME280_pressure;Samples;Min_cycle;Max_cycle;Signal;HPM_P1;HPM_P2
2021/05/03 00:02:14;;;;;;;16.13;9.40;;;7.00;86.60;;;;;;5036939;28;20073;-60
2021/05/03 00:04:40;;;;;;;11.40;7.97;;;6.70;87.10;;;;;;5034431;28;20026;-59
2021/05/03 00:07:05;;;;;;;13.45;8.02;;;6.70;87.20;;;;;;5036107;28;20033;-62
2021/05/03 00:09:31;;;;;;;12.82;7.13;;;6.60;86.50;;;;;;5036055;28;20031;-61
2021/05/03 00:11:57;;;;;;;10.98;6.60;;;6.80;86.30;;;;;;5037173;28;20094;-60
2021/05/03 00:14:22;;;;;;;10.43;5.88;;;6.90;85.90;;;;;;5035596;28;20041;-61
2021/05/03 00:16:48;;;;;;;9.30;5.85;;;6.90;85.40;;;;;;5032315;28;20049;-61
2021/05/03 00:19:13;;;;;;;9.48;5.55;;;7.00;84.80;;;;;;5036847;28;20048;-59
2021/05/03 00:21:39;;;;;;;9.75;5.07;;;7.10;85.00;;;;;;5037410;28;20041;-59
2021/05/03 00:24:05;;;;;;;7.15;4.47;;;7.10;84.80;;;;;;5035214;28;20041;-59
2021/05/03 00:26:30;;;;;;;6.68;5.15;;;7.00;84.90;;;;;;5037000;28;20056;-58
2021/05/03 00:28:56;;;;;;;7.80;4.50;;;6.90;85.90;;;;;;5034788;28;20041;-62
2021/05/03 00:31:22;;;;;;;6.22;4.70;;;6.90;86.20;;;;;;5037357;28;20040;-59
2021/05/03 00:33:47;;;;;;;9.70;5.00;;;6.70;87.10;;;;;;5035180;28;20042;-59
2021/05/03 00:36:13;;;;;;;6.47;4.70;;;6.70;88.00;;;;;;5035397;28;20029;-61
2021/05/03 00:38:38;;;;;;;7.35;4.75;;;6.60;88.80;;;;;;5034955;28;20029;-59
2021/05/03 00:41:04;;;;;;;7.00;5.30;;;6.40;89.50;;;;;;5036085;28;20040;-59
2021/05/03 00:43:30;;;;;;;6.15;5.13;;;6.40;90.00;;;;;;5034940;28;20049;-59
2021/05/03 00:45:56;;;;;;;8.40;5.22;;;6.50;90.10;;;;;;5037435;28;20523;-60
2021/05/03 00:48:22;;;;;;;8.43;5.28;;;6.40;90.30;;;;;;5034172;28;20022;-59
2021/05/03 00:50:48;;;;;;;7.57;5.10;;;6.30;90.50;;;;;;5036396;28;20037;-60
2021/05/03 00:53:14;;;;;;;8.93;5.38;;;6.40;90.60;;;;;;5035082;28;20033;-59
2021/05/03 00:55:40;;;;;;;6.97;5.22;;;6.30;90.70;;;;;;5034239;28;20489;-60
2021/05/03 00:58:05;;;;;;;7.75;5.30;;;6.40;90.60;;;;;;5038515;28;20030;-60
2021/05/03 01:00:32;;;;;;;8.15;4.95;;;6.40;90.50;;;;;;5034718;28;20405;-61
2021/05/03 01:02:59;;;;;;;8.70;5.43;;;6.40;90.50;;;;;;5034625;28;20042;-59
2021/05/03 01:05:28;;;;;;;8.35;5.28;;;6.40;90.60;;;;;;5036740;28;20037;-59
2021/05/03 01:07:54;;;;;;;9.35;5.35;;;6.40;90.60;;;;;;5028781;28;20068;-62
2021/05/03 01:10:20;;;;;;;9.05;6.00;;;6.40;90.80;;;;;;5034148;28;20075;-61
2021/05/03 01:12:46;;;;;;;7.78;5.55;;;6.20;91.30;;;;;;5034718;28;20385;-58
2021/05/03 01:15:12;;;;;;;8.25;5.32;;;6.20;91.40;;;;;;5036525;28;20423;-61
2021/05/03 01:17:42;;;;;;;7.63;5.57;;;6.30;91.20;;;;;;5034844;28;20041;-61
2021/05/03 01:20:10;;;;;;;9.15;6.20;;;6.20;91.20;;;;;;5033342;28;20117;-61
2021/05/03 01:22:35;;;;;;;6.07;5.47;;;6.10;91.50;;;;;;5033898;28;20195;-60
2021/05/03 01:25:02;;;;;;;7.30;5.82;;;6.00;91.80;;;;;;5035188;28;20727;-58
2021/05/03 01:27:28;;;;;;;6.55;5.30;;;6.00;91.70;;;;;;5036515;28;20037;-57
2021/05/03 01:29:53;;;;;;;9.63;5.57;;;6.20;91.40;;;;;;5033231;28;20102;-59
2021/05/03 01:32:19;;;;;;;8.23;6.30;;;6.10;91.60;;;;;;5036264;28;20421;-60
2021/05/03 01:34:45;;;;;;;7.25;5.72;;;6.10;91.70;;;;;;5034378;28;20611;-60
2021/05/03 01:37:14;;;;;;;9.65;5.70;;;5.90;92.00;;;;;;5036726;28;20072;-59
2021/05/03 01:39:40;;;;;;;6.93;5.47;;;5.90;92.00;;;;;;5033216;28;20057;-59
2021/05/03 01:42:05;;;;;;;7.22;6.13;;;5.80;92.30;;;;;;5035173;28;20567;-58
2021/05/03 01:44:31;;;;;;;9.23;6.40;;;5.70;92.60;;;;;;5032505;28;20516;-58
2021/05/03 01:46:57;;;;;;;8.68;6.43;;;5.60;92.60;;;;;;5032806;28;20033;-62
2021/05/03 01:49:23;;;;;;;8.52;6.25;;;5.60;92.80;;;;;;5035373;28;20086;-61
2021/05/03 01:51:49;;;;;;;10.05;5.88;;;5.70;92.50;;;;;;5034201;28;20041;-60
2021/05/03 01:54:15;;;;;;;11.20;6.20;;;5.70;92.40;;;;;;5033742;28;20041;-59
2021/05/03 01:56:40;;;;;;;8.65;6.35;;;5.90;92.20;;;;;;5034208;28;20550;-59
2021/05/03 01:59:07;;;;;;;11.45;6.15;;;5.80;92.40;;;;;;5034879;28;20080;-59
2021/05/03 02:01:36;;;;;;;9.23;6.78;;;5.60;92.70;;;;;;5033883;28;20385;-60
2021/05/03 02:04:02;;;;;;;9.75;6.75;;;5.50;93.00;;;;;;5033851;28;20033;-60
2021/05/03 02:06:28;;;;;;;9.90;7.28;;;5.70;92.50;;;;;;5031938;28;20049;-58
2021/05/03 02:08:53;;;;;;;11.73;6.50;;;5.60;92.40;;;;;;5033685;28;20436;-61
2021/05/03 02:11:19;;;;;;;11.10;6.20;;;5.50;92.60;;;;;;5031905;28;20029;-61
2021/05/03 02:13:44;;;;;;;13.77;6.90;;;5.40;92.80;;;;;;5031773;28;20097;-60
2021/05/03 02:16:10;;;;;;;8.90;6.70;;;5.30;93.00;;;;;;5029959;28;20397;-61
2021/05/03 02:18:36;;;;;;;9.27;7.05;;;5.30;93.00;;;;;;5032703;28;20039;-62
2021/05/03 02:21:01;;;;;;;10.80;7.30;;;5.30;92.90;;;;;;5032288;28;20155;-59
2021/05/03 02:23:27;;;;;;;11.60;6.05;;;5.30;92.90;;;;;;5032186;28;20416;-60
2021/05/03 02:25:53;;;;;;;8.80;6.75;;;5.40;92.80;;;;;;5030719;28;20026;-60
2021/05/03 02:28:18;;;;;;;10.27;6.72;;;5.40;92.60;;;;;;5031136;28;20048;-60
2021/05/03 02:30:44;;;;;;;12.48;7.25;;;5.40;92.70;;;;;;5031269;28;20034;-59
2021/05/03 02:33:10;;;;;;;9.25;6.50;;;5.50;92.60;;;;;;5031282;28;20394;-61
2021/05/03 02:35:36;;;;;;;14.00;7.60;;;5.50;92.40;;;;;;5029962;28;20508;-59
2021/05/03 02:38:03;;;;;;;10.18;7.50;;;5.40;92.70;;;;;;5031067;28;20429;-60
2021/05/03 02:40:31;;;;;;;11.07;6.45;;;5.40;92.70;;;;;;5030575;28;20040;-59
2021/05/03 02:42:58;;;;;;;10.77;6.85;;;5.30;92.90;;;;;;5031181;28;20033;-55
2021/05/03 02:45:25;;;;;;;9.73;7.57;;;5.30;93.00;;;;;;5031044;28;20060;-61
2021/05/03 02:47:51;;;;;;;8.40;7.13;;;5.30;92.90;;;;;;5032730;28;20053;-58
2021/05/03 02:50:18;;;;;;;10.82;6.57;;;5.40;92.70;;;;;;5031110;28;20033;-60
2021/05/03 02:52:44;;;;;;;11.07;6.85;;;5.40;92.60;;;;;;5032049;28;20056;-60
2021/05/03 02:55:11;;;;;;;9.88;7.07;;;5.30;92.80;;;;;;5031450;28;20674;-60
2021/05/03 02:57:47;;;;;;;10.68;6.60;;;5.30;92.90;;;;;;5031935;28;20497;-58
2021/05/03 03:00:16;;;;;;;11.18;6.60;;;5.40;92.50;;;;;;5028625;28;20033;-61
2021/05/03 03:02:42;;;;;;;11.82;7.47;;;5.50;92.50;;;;;;5030056;28;20042;-58
2021/05/03 03:05:08;;;;;;;10.77;7.57;;;5.40;92.50;;;;;;5031415;28;20480;-59
2021/05/03 03:07:34;;;;;;;11.95;7.38;;;5.40;93.00;;;;;;5031274;28;20056;-59
2021/05/03 03:09:59;;;;;;;12.88;7.90;;;5.40;92.90;;;;;;5030879;28;20033;-61
2021/05/03 03:12:25;;;;;;;13.63;7.15;;;5.20;93.40;;;;;;5031016;28;20033;-61
2021/05/03 03:14:50;;;;;;;9.27;7.10;;;5.30;93.10;;;;;;5032536;28;20079;-59
2021/05/03 03:17:16;;;;;;;7.60;6.70;;;5.30;93.10;;;;;;5031259;28;20045;-60
2021/05/03 03:19:42;;;;;;;9.50;6.28;;;5.40;92.90;;;;;;5031169;28;20029;-60
2021/05/03 03:22:09;;;;;;;11.45;6.85;;;5.40;92.50;;;;;;5030712;28;20037;-59
2021/05/03 03:24:35;;;;;;;8.77;6.97;;;5.30;92.80;;;;;;5033721;28;20124;-58
2021/05/03 03:27:01;;;;;;;7.55;6.47;;;5.30;92.80;;;;;;5031153;28;20028;-61
2021/05/03 03:29:27;;;;;;;9.02;6.78;;;5.30;92.80;;;;;;5032443;28;20030;-61
2021/05/03 03:31:53;;;;;;;7.82;6.90;;;5.20;93.00;;;;;;5034043;28;20029;-60
2021/05/03 03:34:18;;;;;;;8.70;6.63;;;5.30;92.90;;;;;;5035943;28;20479;-60
2021/05/03 03:36:44;;;;;;;8.95;6.60;;;5.20;93.00;;;;;;5034486;28;20041;-57
2021/05/03 03:39:10;;;;;;;9.90;6.70;;;5.20;92.90;;;;;;5033697;28;20029;-58
2021/05/03 03:41:36;;;;;;;9.80;7.05;;;5.20;93.00;;;;;;5033443;28;20041;-58
2021/05/03 03:44:03;;;;;;;11.65;6.97;;;5.30;92.90;;;;;;5036701;28;20048;-56
2021/05/03 03:46:29;;;;;;;9.02;7.15;;;5.30;92.80;;;;;;5036958;28;20049;-60
2021/05/03 03:48:55;;;;;;;9.75;7.72;;;5.30;92.60;;;;;;5037690;28;20076;-60
2021/05/03 03:51:23;;;;;;;9.55;6.97;;;5.40;92.60;;;;;;5032583;28;21720;-61
2021/05/03 03:53:49;;;;;;;7.97;7.18;;;5.40;92.50;;;;;;5031917;28;20037;-61
2021/05/03 03:56:17;;;;;;;9.55;7.50;;;5.50;92.40;;;;;;5034560;28;20079;-61
2021/05/03 03:58:43;;;;;;;8.50;7.18;;;5.40;92.40;;;;;;5034185;28;20080;-59
2021/05/03 04:01:11;;;;;;;10.02;7.30;;;5.30;92.80;;;;;;5033543;28;20041;-60
2021/05/03 04:03:46;;;;;;;8.60;7.10;;;5.40;92.60;;;;;;5035742;28;20036;-61
2021/05/03 04:06:23;;;;;;;9.77;7.50;;;5.40;92.60;;;;;;5033397;28;20030;-61
2021/05/03 04:11:53;;;;;;;9.32;7.35;;;5.40;93.10;;;;;;5034254;28;20029;-60
2021/05/03 04:23:03;;;;;;;9.13;6.93;;;5.60;92.40;;;;;;5036137;28;20025;-61
2021/05/03 04:28:00;;;;;;;12.85;7.93;;;5.50;92.60;;;;;;5032076;28;20040;-57
2021/05/03 04:30:26;;;;;;;9.25;7.90;;;5.50;92.60;;;;;;5036126;28;20046;-60
2021/05/03 04:32:51;;;;;;;9.45;7.63;;;5.70;92.20;;;;;;5035550;28;20069;-60
2021/05/03 04:35:17;;;;;;;9.40;7.93;;;5.80;91.70;;;;;;5034659;28;20036;-58
2021/05/03 04:37:43;;;;;;;11.02;7.88;;;5.80;91.80;;;;;;5033681;28;20038;-60
2021/05/03 04:40:09;;;;;;;11.00;7.60;;;5.80;91.80;;;;;;5034494;28;20048;-60
2021/05/03 04:42:35;;;;;;;10.82;7.82;;;5.90;91.70;;;;;;5033419;28;20493;-59
2021/05/03 04:45:00;;;;;;;8.57;7.60;;;5.80;91.90;;;;;;5033272;28;20040;-58
2021/05/03 04:47:26;;;;;;;11.48;8.27;;;5.70;92.00;;;;;;5034385;28;20129;-61
2021/05/03 04:49:51;;;;;;;10.10;8.63;;;5.70;92.20;;;;;;5033757;28;20025;-61
2021/05/03 04:52:17;;;;;;;12.15;8.15;;;5.80;91.90;;;;;;5034414;28;20034;-58
2021/05/03 04:54:42;;;;;;;9.70;7.65;;;5.70;92.30;;;;;;5032342;28;20075;-59
2021/05/03 04:57:08;;;;;;;14.02;8.38;;;5.80;91.90;;;;;;5033358;28;20091;-60
2021/05/03 04:59:33;;;;;;;10.50;7.72;;;5.70;92.00;;;;;;5036788;28;20029;-61
2021/05/03 05:01:59;;;;;;;12.07;7.60;;;5.60;92.20;;;;;;5029703;28;20182;-59
2021/05/03 05:04:25;;;;;;;11.10;8.20;;;5.70;92.00;;;;;;5034983;28;20061;-61
2021/05/03 05:06:52;;;;;;;8.93;7.45;;;5.70;92.10;;;;;;5029001;28;20032;-58
2021/05/03 05:09:17;;;;;;;10.95;7.90;;;5.80;91.90;;;;;;5034762;28;20131;-60
2021/05/03 05:11:43;;;;;;;12.30;9.35;;;5.70;91.80;;;;;;5032820;28;20571;-62
2021/05/03 05:14:09;;;;;;;10.32;7.72;;;5.70;92.00;;;;;;5037851;28;20116;-61
2021/05/03 05:16:34;;;;;;;12.20;8.95;;;5.60;92.00;;;;;;5031419;28;20040;-61
2021/05/03 05:19:00;;;;;;;13.82;9.13;;;5.70;91.70;;;;;;5035617;28;20097;-60
2021/05/03 05:21:26;;;;;;;9.27;7.22;;;5.90;91.50;;;;;;5030397;28;20029;-61
2021/05/03 05:23:54;;;;;;;14.82;7.95;;;5.80;91.70;;;;;;5041007;28;20044;-61
2021/05/03 05:26:19;;;;;;;8.73;6.65;;;6.00;91.20;;;;;;5047886;28;20544;-61
2021/05/03 05:28:45;;;;;;;11.68;7.93;;;6.20;90.80;;;;;;5023337;28;20065;-60
2021/05/03 05:31:10;;;;;;;10.45;7.85;;;6.20;90.80;;;;;;5035575;28;20494;-60
2021/05/03 05:33:36;;;;;;;12.30;7.07;;;6.10;91.10;;;;;;5014652;28;20038;-60
2021/05/03 05:36:02;;;;;;;11.73;8.80;;;6.10;90.90;;;;;;5027113;28;20108;-61
2021/05/03 05:38:28;;;;;;;10.45;7.72;;;6.00;90.80;;;;;;5022347;28;20042;-60
2021/05/03 05:40:53;;;;;;;10.90;7.72;;;6.10;90.60;;;;;;5033681;28;20045;-61
2021/05/03 05:43:19;;;;;;;9.68;7.82;;;6.00;90.80;;;;;;5035485;28;20116;-61
2021/05/03 05:45:44;;;;;;;10.43;7.78;;;6.10;90.60;;;;;;5034548;28;20045;-60
2021/05/03 05:48:10;;;;;;;11.50;9.05;;;6.10;90.40;;;;;;5032172;28;20048;-61
2021/05/03 05:50:35;;;;;;;11.77;8.40;;;6.10;90.50;;;;;;5015983;28;20036;-59
2021/05/03 05:53:01;;;;;;;12.50;9.38;;;6.10;90.70;;;;;;5028867;28;20083;-58
2021/05/03 05:55:27;;;;;;;10.40;8.57;;;6.30;90.30;;;;;;5033228;28;20042;-61
2021/05/03 05:57:52;;;;;;;12.25;9.00;;;6.40;90.40;;;;;;5030604;28;20449;-60
2021/05/03 06:00:18;;;;;;;12.52;9.70;;;6.40;90.10;;;;;;5034837;28;20484;-59
2021/05/03 06:02:44;;;;;;;10.65;9.27;;;6.50;90.00;;;;;;5031673;28;20029;-59
2021/05/03 06:05:11;;;;;;;11.48;8.48;;;6.50;89.70;;;;;;5034212;28;20558;-60
2021/05/03 06:07:36;;;;;;;11.52;9.25;;;6.60;89.40;;;;;;5032054;28;20028;-62
2021/05/03 06:10:03;;;;;;;13.10;9.48;;;6.70;88.10;;;;;;5032218;28;20037;-58
2021/05/03 06:12:28;;;;;;;13.95;9.30;;;6.70;88.50;;;;;;5031485;28;20053;-60
2021/05/03 06:14:54;;;;;;;10.93;9.45;;;6.90;87.60;;;;;;5035021;28;20030;-62
2021/05/03 06:17:20;;;;;;;12.43;9.77;;;6.80;87.70;;;;;;5034721;28;20042;-61
2021/05/03 06:19:46;;;;;;;13.77;9.55;;;6.70;88.10;;;;;;5033499;28;20033;-60
2021/05/03 06:22:12;;;;;;;12.63;9.40;;;6.80;87.50;;;;;;5031213;28;20104;-61
2021/05/03 06:24:38;;;;;;;13.35;9.90;;;6.80;86.70;;;;;;5030828;28;20175;-61
2021/05/03 06:27:04;;;;;;;13.27;8.23;;;6.80;85.90;;;;;;5040033;28;20505;-61
2021/05/03 06:29:29;;;;;;;11.68;8.02;;;6.80;84.90;;;;;;5018659;28;20044;-60
2021/05/03 06:31:57;;;;;;;12.07;8.40;;;6.70;84.90;;;;;;5033108;28;20511;-60
2021/05/03 06:34:23;;;;;;;9.77;8.50;;;6.80;85.10;;;;;;5020415;28;20031;-61
2021/05/03 06:36:49;;;;;;;11.35;8.80;;;6.80;85.00;;;;;;5028921;28;20042;-58
2021/05/03 06:39:15;;;;;;;10.85;7.65;;;7.00;85.20;;;;;;5036433;28;20402;-60
2021/05/03 06:41:41;;;;;;;11.52;9.35;;;7.10;83.00;;;;;;5031240;28;20116;-61
2021/05/03 06:44:07;;;;;;;10.23;7.70;;;6.90;83.60;;;;;;5013371;28;20040;-60
2021/05/03 06:46:33;;;;;;;11.57;7.90;;;6.80;84.10;;;;;;5046172;28;20033;-60
2021/05/03 06:48:58;;;;;;;11.57;8.30;;;7.00;83.20;;;;;;5026694;28;20055;-61
2021/05/03 06:51:24;;;;;;;10.27;8.00;;;7.10;83.50;;;;;;5035412;28;20052;-61
2021/05/03 06:53:49;;;;;;;9.43;8.43;;;7.10;84.10;;;;;;5024712;28;20394;-60
2021/05/03 06:56:15;;;;;;;9.18;7.57;;;7.50;83.20;;;;;;5027461;28;20422;-60
2021/05/03 06:58:40;;;;;;;12.75;8.10;;;7.50;82.70;;;;;;5022085;28;20084;-60
2021/05/03 07:01:06;;;;;;;9.10;8.00;;;7.30;82.20;;;;;;5019868;28;20493;-61
2021/05/03 07:03:32;;;;;;;9.63;7.40;;;7.30;83.00;;;;;;5029801;28;20484;-62
2021/05/03 07:05:57;;;;;;;9.60;7.25;;;7.40;81.00;;;;;;5022139;28;20034;-60
2021/05/03 07:08:25;;;;;;;9.18;6.82;;;7.30;82.20;;;;;;5041177;28;20055;-60
2021/05/03 07:10:53;;;;;;;8.63;7.30;;;7.40;82.00;;;;;;5033149;28;20034;-61
2021/05/03 07:13:19;;;;;;;9.13;6.35;;;7.50;80.40;;;;;;5025033;28;20029;-60
2021/05/03 07:15:46;;;;;;;10.60;6.60;;;7.70;80.80;;;;;;5026641;28;20022;-61
2021/05/03 07:18:11;;;;;;;8.10;6.22;;;7.90;78.70;;;;;;5049923;28;20060;-61
2021/05/03 07:20:37;;;;;;;9.23;6.78;;;7.70;79.20;;;;;;5035847;28;20099;-58
2021/05/03 07:23:05;;;;;;;8.02;6.60;;;7.80;79.10;;;;;;5035880;28;20030;-61
2021/05/03 07:25:30;;;;;;;8.38;6.80;;;7.60;80.00;;;;;;5037968;28;20029;-62
2021/05/03 07:27:56;;;;;;;8.25;6.90;;;7.50;80.50;;;;;;5034800;28;20032;-62
2021/05/03 07:30:22;;;;;;;7.30;6.53;;;7.50;80.30;;;;;;5036115;28;20033;-62
2021/05/03 07:32:47;;;;;;;6.60;5.13;;;7.60;78.60;;;;;;5036284;28;20045;-62
2021/05/03 07:35:13;;;;;;;7.05;6.35;;;7.60;76.90;;;;;;5035703;28;20037;-60
2021/05/03 07:37:39;;;;;;;9.93;6.40;;;7.80;78.50;;;;;;5035351;28;20548;-59
2021/05/03 07:40:06;;;;;;;8.15;6.38;;;7.80;79.30;;;;;;5037991;28;20104;-62
2021/05/03 07:42:32;;;;;;;7.22;5.55;;;7.80;77.60;;;;;;5034896;28;20029;-62
2021/05/03 07:44:57;;;;;;;7.60;6.50;;;7.90;76.40;;;;;;5037045;28;20060;-61
2021/05/03 07:47:24;;;;;;;7.00;5.55;;;7.90;77.80;;;;;;5035213;28;20044;-62
2021/05/03 07:49:50;;;;;;;7.35;5.85;;;8.00;77.00;;;;;;5037546;28;20469;-60
2021/05/03 07:52:16;;;;;;;8.13;6.55;;;8.00;77.30;;;;;;5029934;28;20053;-61
2021/05/03 07:54:41;;;;;;;7.70;6.00;;;8.20;77.00;;;;;;5036401;28;20044;-61
2021/05/03 07:57:07;;;;;;;7.85;6.78;;;8.20;77.80;;;;;;5034514;28;20025;-61
2021/05/03 07:59:32;;;;;;;8.13;7.30;;;8.10;76.30;;;;;;5036325;28;20501;-61
2021/05/03 08:01:58;;;;;;;9.82;7.03;;;8.10;75.40;;;;;;5027754;28;20077;-59
2021/05/03 08:04:23;;;;;;;8.00;6.88;;;8.20;74.20;;;;;;5034351;28;20040;-60
2021/05/03 08:06:51;;;;;;;10.00;6.85;;;8.30;74.00;;;;;;5034708;28;20036;-61
2021/05/03 08:09:17;;;;;;;7.40;6.40;;;8.20;75.40;;;;;;5037138;28;20031;-61
2021/05/03 08:11:44;;;;;;;7.63;6.07;;;8.30;75.20;;;;;;5028235;28;20105;-61
2021/05/03 08:14:15;;;;;;;6.32;5.63;;;8.40;74.70;;;;;;5026031;28;20103;-62
2021/05/03 08:16:41;;;;;;;7.28;6.25;;;8.30;74.80;;;;;;5033654;28;20053;-59
2021/05/03 08:19:06;;;;;;;7.22;6.38;;;8.30;74.60;;;;;;5028942;28;20087;-58
2021/05/03 08:21:32;;;;;;;7.47;5.53;;;8.50;75.00;;;;;;5016001;28;20083;-58
2021/05/03 08:23:57;;;;;;;11.75;6.43;;;8.70;74.80;;;;;;5018601;28;20090;-59
2021/05/03 08:26:23;;;;;;;8.40;6.10;;;8.80;73.90;;;;;;5037090;28;20501;-60
2021/05/03 08:28:49;;;;;;;9.75;5.63;;;8.80;74.20;;;;;;5026243;28;20050;-60
2021/05/03 08:31:15;;;;;;;5.88;5.20;;;8.90;74.50;;;;;;5032316;28;20017;-60
2021/05/03 08:33:41;;;;;;;7.60;5.18;;;8.70;76.40;;;;;;5021724;28;20482;-59
2021/05/03 08:36:07;;;;;;;7.18;4.93;;;8.90;73.40;;;;;;5018107;28;20040;-61
2021/05/03 08:38:33;;;;;;;6.43;5.03;;;8.80;73.40;;;;;;5030163;28;20107;-61
2021/05/03 08:41:01;;;;;;;7.00;4.88;;;9.10;73.30;;;;;;5038330;28;20489;-59
2021/05/03 08:43:29;;;;;;;5.90;4.90;;;9.10;71.50;;;;;;5014387;28;20038;-60
2021/05/03 08:45:55;;;;;;;5.78;4.90;;;9.00;72.10;;;;;;5036018;28;20041;-63
2021/05/03 08:48:32;;;;;;;8.10;4.40;;;8.90;72.70;;;;;;5013964;28;20033;-61
2021/05/03 08:51:11;;;;;;;6.72;4.55;;;8.60;72.80;;;;;;5039769;28;20489;-60
2021/05/03 08:53:42;;;;;;;5.03;3.95;;;8.50;73.10;;;;;;5014454;28;20036;-61
2021/05/03 08:56:07;;;;;;;6.07;4.30;;;8.60;73.10;;;;;;5039594;28;20037;-63
2021/05/03 08:58:40;;;;;;;5.60;4.28;;;8.70;71.60;;;;;;5014075;28;20037;-62
2021/05/03 09:01:06;;;;;;;4.50;4.00;;;9.00;72.30;;;;;;5019961;28;20042;-62
2021/05/03 09:03:34;;;;;;;7.97;5.25;;;9.20;72.10;;;;;;5030959;28;20502;-62
2021/05/03 09:06:05;;;;;;;6.05;4.28;;;9.30;72.20;;;;;;5034245;28;20135;-62
2021/05/03 09:08:32;;;;;;;5.65;4.28;;;9.30;70.50;;;;;;5016666;28;20036;-60
2021/05/03 09:10:58;;;;;;;6.45;4.72;;;9.20;71.30;;;;;;5017723;28;20172;-62
2021/05/03 09:13:32;;;;;;;5.20;4.13;;;9.20;72.00;;;;;;5027679;28;20104;-58
2021/05/03 09:16:16;;;;;;;6.05;4.35;;;9.30;70.60;;;;;;5029509;28;20029;-58
2021/05/03 09:18:42;;;;;;;6.85;3.88;;;9.40;71.80;;;;;;5033810;28;20032;-58
2021/05/03 09:21:18;;;;;;;6.03;4.35;;;9.70;70.60;;;;;;5037098;28;20030;-54
2021/05/03 09:24:09;;;;;;;4.68;3.50;;;10.00;69.60;;;;;;5014277;28;20030;-58
2021/05/03 09:26:45;;;;;;;4.45;3.63;;;9.90;69.30;;;;;;5034763;28;20029;-57
2021/05/03 09:29:33;;;;;;;8.18;4.10;;;9.80;70.40;;;;;;5021982;28;20022;-56
2021/05/03 09:32:14;;;;;;;6.97;4.13;;;9.80;68.30;;;;;;5029625;28;20026;-58
2021/05/03 09:34:43;;;;;;;4.53;3.60;;;9.40;70.30;;;;;;5023520;28;20044;-55
2021/05/03 09:37:35;;;;;;;4.50;3.53;;;9.50;69.30;;;;;;5014542;28;20041;-62
2021/05/03 09:40:12;;;;;;;4.28;3.53;;;9.50;68.60;;;;;;5018618;28;20381;-64
2021/05/03 09:43:07;;;;;;;5.72;3.78;;;9.70;68.30;;;;;;5032262;28;20116;-62
2021/05/03 09:45:33;;;;;;;5.93;3.47;;;10.00;68.60;;;;;;5020771;28;20785;-62
2021/05/03 09:48:00;;;;;;;4.75;3.50;;;10.40;68.00;;;;;;5034024;28;20440;-63
2021/05/03 09:50:30;;;;;;;7.00;4.35;;;10.10;67.30;;;;;;5035928;28;20090;-63
2021/05/03 09:53:09;;;;;;;5.55;3.67;;;10.00;67.70;;;;;;5041746;28;20041;-65
2021/05/03 09:55:51;;;;;;;6.55;4.15;;;9.90;67.60;;;;;;5031470;28;20136;-61
2021/05/03 09:58:21;;;;;;;4.57;3.90;;;9.90;69.00;;;;;;5030983;28;20110;-61
2021/05/03 10:00:54;;;;;;;5.00;3.70;;;10.10;67.20;;;;;;5031232;28;20436;-60
2021/05/03 10:03:46;;;;;;;5.20;3.95;;;10.30;67.70;;;;;;5030894;28;20444;-62
2021/05/03 10:06:14;;;;;;;5.13;3.63;;;10.50;64.90;;;;;;5039200;28;20108;-60
2021/05/03 10:08:43;;;;;;;6.13;3.97;;;10.40;66.10;;;;;;5032388;28;20048;-60
2021/05/03 10:11:10;;;;;;;4.72;4.07;;;10.40;65.40;;;;;;5028591;28;20088;-61
2021/05/03 10:13:41;;;;;;;6.25;4.28;;;10.40;66.20;;;;;;5044851;28;20462;-63
2021/05/03 10:16:08;;;;;;;7.07;4.63;;;10.30;66.20;;;;;;5046421;28;20079;-63
2021/05/03 10:18:36;;;;;;;5.20;4.18;;;10.30;66.70;;;;;;5012268;28;20108;-63
2021/05/03 10:21:06;;;;;;;6.05;3.97;;;10.40;67.60;;;;;;5023714;28;20116;-60
2021/05/03 10:23:31;;;;;;;6.63;4.15;;;10.50;67.50;;;;;;5036395;28;20056;-63
2021/05/03 10:26:00;;;;;;;5.90;4.40;;;10.30;66.30;;;;;;5033101;28;20051;-63
2021/05/03 10:28:27;;;;;;;4.97;4.28;;;10.40;66.90;;;;;;5034093;28;20037;-62
2021/05/03 10:30:58;;;;;;;5.75;4.88;;;10.20;68.70;;;;;;5028944;28;20077;-61
2021/05/03 10:33:37;;;;;;;5.22;4.47;;;10.20;68.90;;;;;;5034161;28;20110;-62
2021/05/03 10:36:05;;;;;;;5.82;4.25;;;10.60;65.60;;;;;;5032464;28;20045;-62
2021/05/03 10:38:32;;;;;;;6.72;5.07;;;10.80;64.80;;;;;;5034056;28;20091;-63
2021/05/03 10:41:00;;;;;;;6.90;4.63;;;10.80;65.40;;;;;;5023033;28;20033;-61
2021/05/03 10:43:38;;;;;;;6.10;4.63;;;11.20;65.50;;;;;;5035756;28;20045;-62
2021/05/03 10:49:04;;;;;;;6.18;5.45;;;11.20;64.00;;;;;;5035336;28;20029;-63
2021/05/03 10:51:43;;;;;;;7.22;4.60;;;10.90;64.70;;;;;;5033843;28;20039;-59
2021/05/03 10:54:21;;;;;;;5.90;4.65;;;10.90;64.80;;;;;;5039924;28;20545;-60
2021/05/03 10:56:47;;;;;;;6.25;4.47;;;10.90;65.10;;;;;;5022352;28;20034;-60
2021/05/03 10:59:14;;;;;;;5.95;4.57;;;11.00;65.60;;;;;;5056676;28;20090;-65
2021/05/03 11:01:51;;;;;;;5.60;4.80;;;11.20;64.80;;;;;;5033172;28;20100;-63
2021/05/03 11:04:18;;;;;;;7.28;4.45;;;11.20;63.60;;;;;;5031912;28;20064;-63
2021/05/03 11:06:43;;;;;;;6.82;4.70;;;11.40;64.30;;;;;;5032959;28;20022;-62
2021/05/03 11:09:40;;;;;;;5.50;4.85;;;11.30;63.50;;;;;;5033857;28;20056;-62
2021/05/03 11:12:05;;;;;;;5.95;5.10;;;11.20;63.40;;;;;;5027785;28;20520;-62
2021/05/03 11:14:32;;;;;;;6.63;5.00;;;11.20;63.80;;;;;;5045013;28;20112;-62
2021/05/03 11:17:01;;;;;;;6.10;5.28;;;11.10;64.20;;;;;;5041478;28;20026;-59
2021/05/03 11:22:07;;;;;;;7.22;5.88;;;11.00;64.10;;;;;;5016997;28;20524;-62
2021/05/03 11:24:38;;;;;;;7.38;5.60;;;11.10;64.30;;;;;;5018070;28;20042;-60
2021/05/03 11:27:31;;;;;;;6.80;5.93;;;11.10;64.00;;;;;;5040420;28;20036;-61
2021/05/03 11:30:18;;;;;;;5.88;5.35;;;11.20;64.50;;;;;;5024785;28;20073;-62
2021/05/03 11:32:40;;;;;;;7.68;5.15;;;11.40;64.20;;;;;;5034116;28;20038;-62
2021/05/03 11:37:43;;;;;;;6.78;5.15;;;11.60;63.60;;;;;;5049559;28;20055;-62
2021/05/03 11:43:11;;;;;;;5.90;4.85;;;11.90;62.90;;;;;;5030357;28;20041;-62
2021/05/03 11:45:39;;;;;;;6.28;5.03;;;11.70;61.90;;;;;;5032058;28;20040;-62
2021/05/03 11:48:05;;;;;;;7.07;5.18;;;11.70;62.30;;;;;;5027401;28;20418;-62
2021/05/03 11:50:31;;;;;;;7.40;5.22;;;11.70;62.20;;;;;;5029942;28;20044;-63
2021/05/03 11:52:56;;;;;;;5.70;4.90;;;11.70;61.70;;;;;;5038015;28;20054;-61
2021/05/03 11:55:25;;;;;;;5.50;4.60;;;11.60;61.80;;;;;;5045477;28;20116;-62
2021/05/03 11:57:51;;;;;;;6.20;5.03;;;11.90;62.00;;;;;;5042036;28;20062;-60
2021/05/03 12:00:26;;;;;;;9.02;5.00;;;11.80;62.60;;;;;;5025221;28;20036;-58
2021/05/03 12:03:18;;;;;;;6.43;5.25;;;11.90;62.10;;;;;;5042471;28;20037;-59
2021/05/03 12:05:46;;;;;;;11.95;5.82;;;12.10;61.90;;;;;;5030549;28;20131;-60
2021/05/03 12:08:13;;;;;;;7.80;5.30;;;12.30;60.80;;;;;;5038899;28;20476;-58
2021/05/03 12:10:39;;;;;;;7.50;5.38;;;12.30;60.90;;;;;;5039464;28;20029;-61
2021/05/03 12:13:04;;;;;;;5.50;4.93;;;12.20;59.40;;;;;;5042341;28;20030;-60
2021/05/03 12:15:31;;;;;;;5.45;4.60;;;12.00;59.80;;;;;;5043251;28;20038;-58
2021/05/03 12:18:01;;;;;;;4.97;4.50;;;11.90;60.00;;;;;;5026074;28;20033;-62
2021/05/03 12:20:35;;;;;;;5.63;4.70;;;11.90;60.10;;;;;;5042082;28;20025;-61
2021/05/03 12:23:04;;;;;;;5.83;4.80;;;11.90;60.00;;;;;;5042493;28;20133;-61
2021/05/03 12:25:40;;;;;;;5.57;4.93;;;12.20;60.40;;;;;;5042163;28;20264;-61
2021/05/03 12:28:16;;;;;;;9.23;5.22;;;12.40;60.10;;;;;;5033886;28;20057;-59
2021/05/03 12:30:44;;;;;;;6.18;5.05;;;12.70;59.50;;;;;;5034297;28;20029;-60
2021/05/03 12:33:20;;;;;;;6.80;5.20;;;12.70;58.50;;;;;;5030284;28;20499;-61
2021/05/03 12:35:47;;;;;;;5.70;4.65;;;12.40;58.70;;;;;;5043734;28;20034;-62
2021/05/03 12:38:17;;;;;;;5.75;5.10;;;12.30;59.40;;;;;;5038782;28;20397;-61
2021/05/03 12:40:42;;;;;;;5.68;5.10;;;12.40;59.00;;;;;;5036673;28;20168;-59
2021/05/03 12:43:08;;;;;;;6.60;5.10;;;12.40;60.40;;;;;;5025550;28;20206;-61
2021/05/03 12:51:45;;;;;;;5.93;4.80;;;12.90;57.50;;;;;;5035301;28;20045;-62
2021/05/03 12:54:17;;;;;;;7.60;5.13;;;13.00;57.60;;;;;;5020874;28;20037;-63
2021/05/03 12:56:57;;;;;;;7.88;5.35;;;13.20;59.60;;;;;;5055726;28;20143;-62
2021/05/03 12:59:34;;;;;;;5.78;5.18;;;13.20;57.30;;;;;;5033280;28;20522;-64
2021/05/03 13:05:09;;;;;;;6.55;5.30;;;12.90;58.00;;;;;;5042084;28;20489;-62
2021/05/03 13:10:42;;;;;;;5.50;5.00;;;13.10;58.10;;;;;;5031412;28;20037;-60
2021/05/03 13:30:19;;;;;;;5.55;4.70;;;13.80;54.60;;;;;;5029695;28;20042;-62
2021/05/03 13:32:45;;;;;;;5.05;4.28;;;14.10;54.70;;;;;;5025677;28;20125;-60
2021/05/03 13:35:11;;;;;;;5.97;5.00;;;14.20;54.30;;;;;;5026838;28;20108;-61
2021/05/03 13:37:36;;;;;;;7.25;4.40;;;14.20;53.90;;;;;;5032873;28;20568;-61
2021/05/03 13:40:03;;;;;;;5.85;4.80;;;14.50;54.30;;;;;;5041699;28;20040;-60
2021/05/03 13:42:28;;;;;;;5.93;4.78;;;14.60;53.40;;;;;;5019373;28;20557;-62
2021/05/03 13:44:54;;;;;;;5.38;4.28;;;14.80;54.00;;;;;;5021338;28;20030;-63
2021/05/03 13:47:19;;;;;;;6.28;4.78;;;14.50;54.30;;;;;;5046872;28;20087;-59
2021/05/03 13:49:45;;;;;;;6.20;4.13;;;14.70;52.10;;;;;;5036781;28;20028;-63